Time;durP1;ratioP1;P1;durP2;ratioP2;P2;SDS_P1;SDS_P2;PMS_P1;PMS_P2;Temp;Humidity;BMP_temperature;BMP_pressure;BME280_temperature;BME280_humidity;BME280_pressure;Samples;Min_cycle;Max_cycle;Signal;HPM_P1;HPM_P2
2022/03/20 00:00:39;;;;;;;11.45;8.60;;;2.40;99.90;;;;;;4989675;28;20129;-50
2022/03/20 00:03:09;;;;;;;12.00;7.63;;;2.40;99.90;;;;;;4989587;28;20393;-49
2022/03/20 00:05:38;;;;;;;11.60;8.77;;;2.40;99.90;;;;;;4989801;28;20037;-51
2022/03/20 00:08:13;;;;;;;12.35;8.13;;;2.30;99.90;;;;;;4989865;28;20422;-50
2022/03/20 00:10:44;;;;;;;10.82;8.50;;;2.30;99.90;;;;;;4989969;28;20038;-51
2022/03/20 00:13:11;;;;;;;12.40;8.98;;;2.20;99.90;;;;;;4988071;28;20035;-51
2022/03/20 00:15:40;;;;;;;13.20;8.10;;;2.20;99.90;;;;;;4989755;28;20041;-50
2022/03/20 00:18:06;;;;;;;13.68;8.80;;;2.20;99.90;;;;;;4988658;28;20392;-49
2022/03/20 00:20:37;;;;;;;11.27;7.93;;;2.10;99.90;;;;;;4989723;28;20046;-52
2022/03/20 00:23:07;;;;;;;15.77;9.43;;;2.10;99.90;;;;;;4989197;28;20527;-52
2022/03/20 00:25:41;;;;;;;17.35;10.38;;;2.10;99.90;;;;;;4989679;28;20026;-51
2022/03/20 00:28:07;;;;;;;16.00;10.38;;;2.00;99.90;;;;;;4989540;28;20353;-52
2022/03/20 00:30:34;;;;;;;15.60;10.00;;;2.00;99.90;;;;;;4989601;28;20034;-52
2022/03/20 00:32:59;;;;;;;15.63;9.68;;;2.00;99.90;;;;;;4989349;28;20034;-48
2022/03/20 00:35:25;;;;;;;12.55;8.82;;;1.90;99.90;;;;;;4988931;28;20031;-50
2022/03/20 00:37:51;;;;;;;15.25;9.35;;;1.90;99.90;;;;;;4989375;28;20053;-51
2022/03/20 00:40:16;;;;;;;16.70;10.60;;;1.90;99.90;;;;;;4992336;28;20026;-51
2022/03/20 00:42:42;;;;;;;16.58;10.43;;;1.90;99.90;;;;;;4992851;28;20038;-49
2022/03/20 00:45:08;;;;;;;17.77;10.63;;;1.80;99.90;;;;;;4993172;28;20588;-48
2022/03/20 00:47:34;;;;;;;16.65;11.07;;;1.80;99.90;;;;;;4993046;28;20035;-54
2022/03/20 00:50:00;;;;;;;15.23;10.82;;;1.80;99.90;;;;;;4993137;28;20022;-51
2022/03/20 00:52:25;;;;;;;20.40;11.70;;;1.70;99.90;;;;;;4992807;28;20512;-51
2022/03/20 00:54:51;;;;;;;17.38;12.50;;;1.80;99.90;;;;;;4993425;28;20102;-53
2022/03/20 00:57:17;;;;;;;16.77;10.93;;;1.70;99.90;;;;;;4992671;28;20117;-50
2022/03/20 00:59:43;;;;;;;18.38;12.25;;;1.70;99.90;;;;;;4992879;28;20058;-50
2022/03/20 01:02:08;;;;;;;14.90;11.50;;;1.70;99.90;;;;;;4992575;28;20034;-52
2022/03/20 01:04:35;;;;;;;14.98;10.20;;;1.70;99.90;;;;;;4993053;28;20022;-51
2022/03/20 01:07:02;;;;;;;18.83;11.25;;;1.70;99.90;;;;;;4992703;28;20041;-52
2022/03/20 01:09:31;;;;;;;16.48;11.65;;;1.70;99.90;;;;;;4992894;28;20105;-52
2022/03/20 01:11:58;;;;;;;19.20;12.90;;;1.70;99.90;;;;;;4992061;28;20073;-52
2022/03/20 01:14:25;;;;;;;18.73;12.48;;;1.70;99.90;;;;;;4992422;28;20038;-51
2022/03/20 01:16:51;;;;;;;17.88;12.00;;;1.70;99.90;;;;;;4991348;28;20038;-49
2022/03/20 01:19:17;;;;;;;16.15;11.48;;;1.70;99.90;;;;;;4992345;28;20042;-51
2022/03/20 01:21:43;;;;;;;18.50;12.02;;;1.70;99.90;;;;;;4992645;28;20027;-51
2022/03/20 01:24:09;;;;;;;18.88;11.82;;;1.70;99.90;;;;;;4992516;28;20029;-50
2022/03/20 01:26:35;;;;;;;23.50;12.93;;;1.70;99.90;;;;;;4991983;28;20022;-51
2022/03/20 01:29:02;;;;;;;20.33;12.93;;;1.70;99.90;;;;;;4992086;28;20041;-48
2022/03/20 01:31:28;;;;;;;22.13;12.85;;;1.60;99.90;;;;;;4992901;28;20041;-49
2022/03/20 01:33:55;;;;;;;17.73;11.00;;;1.60;99.90;;;;;;4992241;28;20026;-50
2022/03/20 01:36:21;;;;;;;19.00;11.60;;;1.60;99.90;;;;;;4992252;28;20022;-54
2022/03/20 01:38:47;;;;;;;20.13;11.73;;;1.60;99.90;;;;;;4992443;28;20534;-50
2022/03/20 01:41:13;;;;;;;17.00;12.07;;;1.60;99.90;;;;;;4992195;28;20413;-49
2022/03/20 01:43:47;;;;;;;20.27;12.68;;;1.70;99.90;;;;;;4991755;28;20465;-49
2022/03/20 01:46:13;;;;;;;17.95;11.75;;;1.60;99.90;;;;;;4991913;28;20169;-51
2022/03/20 01:48:38;;;;;;;19.40;11.50;;;1.60;99.90;;;;;;4991974;28;20113;-49
2022/03/20 01:51:04;;;;;;;15.30;11.63;;;1.60;99.90;;;;;;4991629;28;20040;-48
2022/03/20 01:53:29;;;;;;;21.15;13.38;;;1.60;99.90;;;;;;4980968;28;20031;-53
2022/03/20 01:55:56;;;;;;;19.77;12.85;;;1.60;99.90;;;;;;5001934;28;20425;-51
2022/03/20 01:58:22;;;;;;;17.90;12.50;;;1.60;99.90;;;;;;4982544;28;20128;-48
2022/03/20 02:00:48;;;;;;;15.70;12.23;;;1.60;99.90;;;;;;4991419;28;20026;-48
2022/03/20 02:03:13;;;;;;;20.95;13.95;;;1.70;99.90;;;;;;4989089;28;20106;-51
2022/03/20 02:05:42;;;;;;;23.75;13.35;;;1.70;99.90;;;;;;4991168;28;20597;-51
2022/03/20 02:08:07;;;;;;;22.92;13.50;;;1.70;99.90;;;;;;4991349;28;20065;-49
2022/03/20 02:10:37;;;;;;;17.90;12.88;;;1.70;99.90;;;;;;4990828;28;20062;-52
2022/03/20 02:13:04;;;;;;;24.25;14.25;;;1.70;99.90;;;;;;4991074;28;20030;-53
2022/03/20 02:15:30;;;;;;;22.65;13.45;;;1.60;99.90;;;;;;4991319;28;20038;-53
2022/03/20 02:17:56;;;;;;;17.25;13.18;;;1.70;99.90;;;;;;4990859;28;20056;-50
2022/03/20 02:20:22;;;;;;;24.17;13.65;;;1.60;99.90;;;;;;4991441;28;20054;-51
2022/03/20 02:22:48;;;;;;;19.67;12.05;;;1.60;99.90;;;;;;4990919;28;20515;-50
2022/03/20 02:25:15;;;;;;;21.13;12.85;;;1.60;99.90;;;;;;4991482;28;20477;-49
2022/03/20 02:27:44;;;;;;;19.20;13.27;;;1.60;99.90;;;;;;4991055;28;20029;-51
2022/03/20 02:30:13;;;;;;;20.27;13.43;;;1.60;99.90;;;;;;4991523;28;20369;-52
2022/03/20 02:32:41;;;;;;;22.65;13.85;;;1.60;99.90;;;;;;4991009;28;20058;-51
2022/03/20 02:35:11;;;;;;;20.10;13.15;;;1.60;99.90;;;;;;4990963;28;20046;-50
2022/03/20 02:37:40;;;;;;;19.13;13.57;;;1.60;99.90;;;;;;4989650;28;20057;-50
2022/03/20 02:40:06;;;;;;;20.27;13.50;;;1.50;99.90;;;;;;4990772;28;20045;-49
2022/03/20 02:42:31;;;;;;;19.92;13.13;;;1.60;99.90;;;;;;4990931;28;20034;-52
2022/03/20 02:45:19;;;;;;;18.55;13.15;;;1.60;99.90;;;;;;4990695;28;20053;-52
2022/03/20 02:47:46;;;;;;;23.50;13.93;;;1.50;99.90;;;;;;4990235;28;20075;-50
2022/03/20 02:50:17;;;;;;;21.33;14.15;;;1.50;99.90;;;;;;4990865;28;20030;-49
2022/03/20 02:52:46;;;;;;;22.73;14.10;;;1.50;99.90;;;;;;4990829;28;20034;-50
2022/03/20 02:55:12;;;;;;;19.00;13.43;;;1.50;99.90;;;;;;4990737;28;20037;-51
2022/03/20 02:57:38;;;;;;;18.45;13.40;;;1.50;99.90;;;;;;4990474;28;20056;-49
2022/03/20 03:00:05;;;;;;;22.52;13.85;;;1.50;99.90;;;;;;4990689;28;20062;-51
2022/03/20 03:02:37;;;;;;;22.52;13.93;;;1.40;99.90;;;;;;4989763;28;20042;-52
2022/03/20 03:05:03;;;;;;;24.33;14.57;;;1.50;99.90;;;;;;4991378;28;20044;-51
2022/03/20 03:07:30;;;;;;;22.17;13.80;;;1.50;99.90;;;;;;4990705;28;20034;-50
2022/03/20 03:12:41;;;;;;;20.88;14.02;;;1.50;99.90;;;;;;4990172;28;20092;-50
2022/03/20 03:15:19;;;;;;;23.77;15.32;;;1.50;99.90;;;;;;4990145;28;20026;-50
2022/03/20 03:17:48;;;;;;;23.05;14.45;;;1.50;99.90;;;;;;4989947;28;20504;-52
2022/03/20 03:20:14;;;;;;;20.95;13.73;;;1.40;99.90;;;;;;4990597;28;20480;-51
2022/03/20 03:22:40;;;;;;;20.23;13.70;;;1.40;99.90;;;;;;4990231;28;20030;-50
2022/03/20 03:25:06;;;;;;;20.08;14.80;;;1.40;99.90;;;;;;4988959;28;20133;-49
2022/03/20 03:27:33;;;;;;;23.90;14.98;;;1.40;99.90;;;;;;4989086;28;20030;-49
2022/03/20 03:29:59;;;;;;;22.10;14.55;;;1.40;99.90;;;;;;4990611;28;20171;-52
2022/03/20 03:32:25;;;;;;;19.70;14.32;;;1.30;99.90;;;;;;4989906;28;20027;-49
2022/03/20 03:37:35;;;;;;;23.73;15.25;;;1.30;99.90;;;;;;4990325;28;20046;-52
2022/03/20 03:40:03;;;;;;;21.80;15.68;;;1.40;99.90;;;;;;4990148;28;20030;-52
2022/03/20 03:42:33;;;;;;;23.27;15.65;;;1.30;99.90;;;;;;4989757;28;20150;-49
2022/03/20 03:44:58;;;;;;;20.05;15.05;;;1.30;99.90;;;;;;4989808;28;20023;-50
2022/03/20 03:47:25;;;;;;;23.50;14.73;;;1.30;99.90;;;;;;4989962;28;20065;-53
2022/03/20 03:49:51;;;;;;;22.30;15.00;;;1.30;99.90;;;;;;4990088;28;20023;-47
2022/03/20 03:52:17;;;;;;;21.25;15.45;;;1.30;99.90;;;;;;4988125;28;20065;-51
2022/03/20 03:54:42;;;;;;;21.80;14.13;;;1.30;99.90;;;;;;4989977;28;20066;-50
2022/03/20 03:57:08;;;;;;;24.83;14.98;;;1.30;99.90;;;;;;4989536;28;20206;-51
2022/03/20 03:59:34;;;;;;;19.98;14.32;;;1.20;99.90;;;;;;4989767;28;20030;-52
2022/03/20 04:02:02;;;;;;;24.75;15.93;;;1.20;99.90;;;;;;4989255;28;20109;-50
2022/03/20 04:04:28;;;;;;;21.00;14.35;;;1.20;99.90;;;;;;4989746;28;20030;-50
2022/03/20 04:06:54;;;;;;;26.83;14.73;;;1.10;99.90;;;;;;4989592;28;20036;-51
2022/03/20 04:09:20;;;;;;;23.20;14.68;;;1.10;99.90;;;;;;4989227;28;20084;-52
2022/03/20 04:11:46;;;;;;;21.23;14.82;;;1.10;99.90;;;;;;4989812;28;20034;-50
2022/03/20 04:14:11;;;;;;;21.13;14.43;;;1.10;99.90;;;;;;4972655;28;20552;-51
2022/03/20 04:16:37;;;;;;;20.70;14.77;;;1.10;99.90;;;;;;4991382;28;20042;-50
2022/03/20 04:19:02;;;;;;;20.55;14.80;;;1.10;99.90;;;;;;4993661;28;20033;-49
2022/03/20 04:21:29;;;;;;;24.00;15.07;;;1.00;99.90;;;;;;4993357;28;20037;-50
2022/03/20 04:23:55;;;;;;;20.05;14.45;;;1.00;99.90;;;;;;4993286;28;20042;-49
2022/03/20 04:26:22;;;;;;;22.80;15.07;;;1.00;99.90;;;;;;4993321;28;20030;-54
2022/03/20 04:28:49;;;;;;;23.05;14.85;;;1.00;99.90;;;;;;4993197;28;20023;-50
2022/03/20 04:31:15;;;;;;;23.00;16.00;;;0.90;99.90;;;;;;4993458;28;20034;-51
2022/03/20 04:33:49;;;;;;;23.75;14.93;;;0.90;99.90;;;;;;4997035;22;20051;-47
2022/03/20 04:36:16;;;;;;;22.67;15.27;;;0.90;99.90;;;;;;4971879;28;20023;-49
2022/03/20 04:38:41;;;;;;;23.88;15.68;;;0.90;99.90;;;;;;4974294;28;20515;-50
2022/03/20 04:41:07;;;;;;;23.30;16.15;;;0.90;99.90;;;;;;4974265;28;20058;-50
2022/03/20 04:43:33;;;;;;;24.40;14.85;;;0.90;99.90;;;;;;4973443;28;20047;-49
2022/03/20 04:45:59;;;;;;;21.13;15.93;;;0.90;99.90;;;;;;4974201;28;20026;-47
2022/03/20 04:59:22;;;;;;;24.45;14.82;;;0.90;99.90;;;;;;4974209;28;20058;-48
2022/03/20 05:01:48;;;;;;;23.40;15.30;;;0.90;99.90;;;;;;4973493;28;20022;-47
2022/03/20 05:04:14;;;;;;;26.73;16.05;;;0.90;99.90;;;;;;4973593;28;20037;-49
2022/03/20 05:06:40;;;;;;;22.38;15.63;;;0.90;99.90;;;;;;4956107;28;20030;-48
2022/03/20 05:14:34;;;;;;;21.17;15.32;;;0.80;99.90;;;;;;4974036;28;20639;-48
2022/03/20 05:17:02;;;;;;;20.70;15.35;;;0.90;99.90;;;;;;4972956;28;20071;-49
2022/03/20 05:19:28;;;;;;;22.60;15.38;;;0.90;99.90;;;;;;4973800;28;20537;-47
2022/03/20 05:21:53;;;;;;;23.73;15.50;;;0.90;99.90;;;;;;4973669;28;20106;-49
2022/03/20 05:24:19;;;;;;;23.48;15.85;;;0.90;99.90;;;;;;4973618;28;20029;-50
2022/03/20 05:26:44;;;;;;;21.17;14.93;;;0.90;99.90;;;;;;4955943;28;20027;-51
2022/03/20 05:29:10;;;;;;;19.52;15.02;;;0.90;99.90;;;;;;4956054;28;20105;-47
2022/03/20 05:31:36;;;;;;;22.08;15.90;;;0.90;99.90;;;;;;4972966;28;20023;-47
2022/03/20 05:34:01;;;;;;;21.42;15.80;;;0.90;99.90;;;;;;4973163;28;20069;-51
2022/03/20 05:36:29;;;;;;;22.02;15.73;;;0.90;99.90;;;;;;4955728;28;20053;-48
2022/03/20 05:38:58;;;;;;;23.27;15.07;;;0.80;99.90;;;;;;4973172;28;20405;-48
2022/03/20 05:44:11;;;;;;;20.15;13.82;;;0.90;99.90;;;;;;4953929;29;20090;-48
2022/03/20 05:46:37;;;;;;;22.92;15.52;;;0.90;99.90;;;;;;4968940;28;20038;-48
2022/03/20 05:49:03;;;;;;;20.38;14.82;;;0.80;99.90;;;;;;4973085;28;20035;-49
2022/03/20 05:51:30;;;;;;;20.67;14.88;;;0.90;99.90;;;;;;4973058;28;20106;-47
2022/03/20 05:53:57;;;;;;;23.30;15.32;;;0.90;99.90;;;;;;4973119;28;20448;-48
2022/03/20 05:59:07;;;;;;;23.35;15.55;;;0.90;99.90;;;;;;4970727;28;20171;-48
2022/03/20 06:01:33;;;;;;;22.58;16.08;;;0.90;99.90;;;;;;4973269;28;20518;-45
2022/03/20 06:03:58;;;;;;;21.77;15.88;;;0.90;99.90;;;;;;4973183;28;20051;-47
2022/03/20 06:06:24;;;;;;;23.73;16.10;;;0.90;99.90;;;;;;4973194;28;20493;-48
2022/03/20 06:08:50;;;;;;;23.35;16.35;;;0.90;99.90;;;;;;4972919;28;20031;-46
2022/03/20 06:11:16;;;;;;;25.08;15.82;;;1.00;99.90;;;;;;4972887;28;20038;-47
2022/03/20 06:13:43;;;;;;;25.35;15.15;;;1.00;99.90;;;;;;4972515;28;20485;-48
2022/03/20 06:16:08;;;;;;;25.08;15.50;;;1.00;99.90;;;;;;4972631;28;20023;-49
2022/03/20 06:18:34;;;;;;;23.40;16.30;;;1.00;99.90;;;;;;4954972;28;20038;-46
2022/03/20 06:21:00;;;;;;;24.80;15.98;;;1.10;99.90;;;;;;4972750;28;20030;-47
2022/03/20 06:23:27;;;;;;;23.95;15.90;;;1.10;99.90;;;;;;4972161;28;20110;-46
2022/03/20 06:25:52;;;;;;;20.95;14.73;;;1.10;99.90;;;;;;4955016;28;20023;-47
2022/03/20 06:28:19;;;;;;;20.98;15.27;;;1.20;99.90;;;;;;4972383;28;20035;-50
2022/03/20 06:30:45;;;;;;;22.58;15.23;;;1.20;99.90;;;;;;4972637;28;20149;-48
2022/03/20 06:33:10;;;;;;;25.63;16.83;;;1.30;99.90;;;;;;4971996;28;20122;-48
2022/03/20 06:35:36;;;;;;;21.42;15.57;;;1.30;99.90;;;;;;4972057;28;20022;-46
2022/03/20 06:38:02;;;;;;;19.33;14.38;;;1.30;99.90;;;;;;4971352;28;20621;-48
2022/03/20 06:40:28;;;;;;;22.55;14.45;;;1.40;99.90;;;;;;4980651;28;20022;-50
2022/03/20 06:42:55;;;;;;;20.15;14.75;;;1.40;99.90;;;;;;4958323;28;20029;-49
2022/03/20 06:45:21;;;;;;;18.90;15.13;;;1.40;99.90;;;;;;4971865;28;20031;-48
2022/03/20 06:47:47;;;;;;;21.10;14.77;;;1.50;99.90;;;;;;4971903;28;20027;-46
2022/03/20 06:50:13;;;;;;;21.48;15.30;;;1.60;99.90;;;;;;4971989;28;20022;-46
2022/03/20 06:52:40;;;;;;;23.45;15.48;;;1.60;99.90;;;;;;4971418;28;20078;-49
2022/03/20 06:55:08;;;;;;;21.15;14.68;;;1.60;99.90;;;;;;4954689;28;20027;-48
2022/03/20 06:57:35;;;;;;;21.45;15.13;;;1.70;99.90;;;;;;4954471;28;20037;-50
2022/03/20 07:00:04;;;;;;;19.20;13.98;;;1.70;99.90;;;;;;4971724;28;20512;-48
2022/03/20 07:02:29;;;;;;;22.00;15.15;;;1.80;99.90;;;;;;4953689;28;20046;-52
2022/03/20 07:04:55;;;;;;;21.17;13.82;;;1.90;99.90;;;;;;4971705;28;20062;-48
2022/03/20 07:07:23;;;;;;;20.65;14.68;;;1.90;99.90;;;;;;4971569;28;20109;-47
2022/03/20 07:09:49;;;;;;;20.00;14.48;;;2.00;99.90;;;;;;4971706;28;20446;-49
2022/03/20 07:12:15;;;;;;;18.13;13.52;;;2.00;99.90;;;;;;4971261;28;20060;-48
2022/03/20 07:14:44;;;;;;;19.40;13.80;;;2.20;99.90;;;;;;4971636;28;20521;-49
2022/03/20 07:17:12;;;;;;;22.13;14.52;;;2.20;99.90;;;;;;4971366;28;20022;-48
2022/03/20 07:19:40;;;;;;;20.75;15.45;;;2.30;99.90;;;;;;4971663;28;20093;-48
2022/03/20 07:22:06;;;;;;;22.30;15.95;;;2.40;99.90;;;;;;4971144;28;20027;-47
2022/03/20 07:24:36;;;;;;;20.15;14.90;;;2.50;99.90;;;;;;4971512;28;20046;-46
2022/03/20 07:29:49;;;;;;;18.33;13.88;;;2.60;99.90;;;;;;4971439;28;20065;-47
2022/03/20 07:32:15;;;;;;;19.08;13.60;;;2.80;99.90;;;;;;4970983;28;20039;-50
2022/03/20 07:34:41;;;;;;;21.92;15.18;;;2.90;99.90;;;;;;4971398;28;20019;-48
2022/03/20 07:37:07;;;;;;;19.90;13.70;;;3.00;99.90;;;;;;4970848;28;20030;-48
2022/03/20 07:39:34;;;;;;;19.70;14.05;;;3.10;99.90;;;;;;4970995;28;20031;-48
2022/03/20 07:41:59;;;;;;;17.50;13.88;;;3.20;99.90;;;;;;4970806;28;20069;-47
2022/03/20 07:44:25;;;;;;;20.30;13.27;;;3.30;99.90;;;;;;4970890;28;20096;-49
2022/03/20 07:46:53;;;;;;;19.23;14.10;;;3.40;99.90;;;;;;4971073;28;20027;-49
2022/03/20 07:49:21;;;;;;;20.52;13.90;;;3.60;99.90;;;;;;4970627;28;20126;-49
2022/03/20 07:51:47;;;;;;;17.27;13.18;;;3.70;99.90;;;;;;4953096;28;20030;-49
2022/03/20 07:54:14;;;;;;;15.95;12.93;;;3.80;99.90;;;;;;4952827;28;20046;-48
2022/03/20 07:56:39;;;;;;;19.65;14.52;;;4.00;99.90;;;;;;4970529;28;20493;-49
2022/03/20 07:59:07;;;;;;;19.90;13.65;;;4.10;99.90;;;;;;4978761;28;20425;-47
2022/03/20 08:01:36;;;;;;;20.52;12.82;;;4.20;99.90;;;;;;4970151;28;20118;-48
2022/03/20 08:04:02;;;;;;;18.75;13.18;;;4.40;99.90;;;;;;4970593;28;20535;-49
2022/03/20 08:06:28;;;;;;;17.55;12.60;;;4.50;99.90;;;;;;4970489;28;20433;-47
2022/03/20 08:08:54;;;;;;;17.08;12.13;;;4.70;99.90;;;;;;4970776;28;20081;-48
2022/03/20 08:11:19;;;;;;;15.88;12.73;;;4.80;99.90;;;;;;4970200;28;20038;-46
2022/03/20 08:13:46;;;;;;;16.48;12.40;;;5.00;99.90;;;;;;4970365;28;20039;-49
2022/03/20 08:16:15;;;;;;;17.70;12.90;;;5.20;99.90;;;;;;4970909;28;20065;-46
2022/03/20 08:18:44;;;;;;;16.05;11.75;;;5.40;99.90;;;;;;4970257;28;20046;-52
2022/03/20 08:21:11;;;;;;;16.45;11.55;;;5.50;99.90;;;;;;4970799;28;20118;-48
2022/03/20 08:23:38;;;;;;;18.65;12.63;;;5.70;99.90;;;;;;4970219;28;20031;-47
2022/03/20 08:26:05;;;;;;;16.63;12.40;;;5.80;99.90;;;;;;4970596;28;20065;-47
2022/03/20 08:28:30;;;;;;;14.73;11.40;;;5.90;99.90;;;;;;4952760;28;20066;-49
2022/03/20 08:30:57;;;;;;;20.25;12.38;;;6.10;99.90;;;;;;4953243;28;20434;-46
2022/03/20 08:33:22;;;;;;;16.98;12.10;;;6.20;99.90;;;;;;4953087;28;20409;-48
2022/03/20 08:35:48;;;;;;;17.52;11.18;;;6.40;99.90;;;;;;4969473;28;20034;-50
2022/03/20 08:38:14;;;;;;;17.95;12.20;;;6.50;99.90;;;;;;4938226;28;20031;-48
2022/03/20 08:40:39;;;;;;;16.75;13.00;;;6.60;99.90;;;;;;4970663;28;20066;-48
2022/03/20 08:43:06;;;;;;;15.02;10.60;;;6.80;99.90;;;;;;4969686;28;20027;-48
2022/03/20 08:45:33;;;;;;;16.20;11.90;;;6.80;97.30;;;;;;4970458;28;20023;-49
2022/03/20 08:47:59;;;;;;;14.65;11.85;;;6.90;97.00;;;;;;4970043;28;20035;-52
2022/03/20 08:50:25;;;;;;;19.10;11.90;;;7.10;97.20;;;;;;4969379;28;20027;-49
2022/03/20 08:52:53;;;;;;;16.23;10.75;;;7.10;97.10;;;;;;4952441;28;20490;-49
2022/03/20 08:55:19;;;;;;;15.60;10.75;;;7.20;93.70;;;;;;4987295;28;20113;-51
2022/03/20 08:57:47;;;;;;;15.52;11.32;;;7.30;95.60;;;;;;4989579;28;20101;-47
2022/03/20 09:00:15;;;;;;;16.58;11.07;;;7.40;92.90;;;;;;4973519;28;20030;-48
2022/03/20 09:02:45;;;;;;;16.50;11.63;;;7.40;91.20;;;;;;4993147;28;20036;-50
2022/03/20 09:05:12;;;;;;;15.65;11.15;;;7.60;94.10;;;;;;4993520;28;20111;-47
2022/03/20 09:07:45;;;;;;;17.80;12.52;;;7.70;92.10;;;;;;4976116;28;20026;-49
2022/03/20 09:10:14;;;;;;;16.17;11.48;;;7.80;92.00;;;;;;4993581;28;20038;-48
2022/03/20 09:12:40;;;;;;;16.70;11.13;;;7.80;91.20;;;;;;4993340;28;20054;-49
2022/03/20 09:15:12;;;;;;;15.57;12.10;;;7.90;90.70;;;;;;4992830;28;20026;-49
2022/03/20 09:20:22;;;;;;;16.13;11.90;;;8.00;91.10;;;;;;4993490;28;20085;-48
2022/03/20 09:22:48;;;;;;;15.98;11.32;;;8.10;91.30;;;;;;4975396;28;20500;-50
2022/03/20 09:25:14;;;;;;;15.30;11.20;;;8.20;90.60;;;;;;4993150;28;20101;-46
2022/03/20 09:27:40;;;;;;;15.45;11.95;;;8.30;89.80;;;;;;4982630;28;20094;-50
2022/03/20 09:30:06;;;;;;;14.70;10.98;;;8.40;90.70;;;;;;4956506;28;20027;-47
2022/03/20 09:32:32;;;;;;;14.80;11.75;;;8.50;89.10;;;;;;4972905;28;20109;-48
2022/03/20 09:34:58;;;;;;;18.80;12.25;;;8.50;87.30;;;;;;4973618;28;20608;-47
2022/03/20 09:37:24;;;;;;;17.25;12.50;;;8.50;87.00;;;;;;4973145;28;20069;-49
2022/03/20 09:39:49;;;;;;;15.93;12.00;;;8.60;87.30;;;;;;4956255;28;20096;-46
2022/03/20 09:42:18;;;;;;;15.68;11.43;;;8.60;85.50;;;;;;4972317;28;20031;-48
2022/03/20 09:44:44;;;;;;;16.85;11.90;;;8.60;83.80;;;;;;4972537;28;20015;-47
2022/03/20 09:47:13;;;;;;;15.98;11.65;;;8.60;84.20;;;;;;4972524;28;20401;-48
2022/03/20 09:49:39;;;;;;;17.15;12.43;;;8.70;83.90;;;;;;4973082;28;20073;-48
2022/03/20 09:52:09;;;;;;;16.83;12.55;;;8.60;84.50;;;;;;4972875;28;20066;-50
2022/03/20 09:54:35;;;;;;;19.77;13.02;;;8.70;82.40;;;;;;4973029;28;20054;-48
2022/03/20 09:57:05;;;;;;;17.25;12.52;;;8.80;85.90;;;;;;4972915;28;20058;-47
2022/03/20 09:59:32;;;;;;;15.80;11.57;;;9.00;83.10;;;;;;4972609;28;20023;-49
2022/03/20 10:02:02;;;;;;;16.50;12.32;;;9.10;84.30;;;;;;4972691;28;20092;-48
2022/03/20 10:04:28;;;;;;;19.92;13.48;;;9.20;84.20;;;;;;4972574;28;20106;-50
2022/03/20 10:06:54;;;;;;;17.27;13.40;;;9.20;84.40;;;;;;4972843;28;20026;-51
2022/03/20 10:09:21;;;;;;;16.48;12.35;;;9.20;80.80;;;;;;4972519;28;20394;-51
2022/03/20 10:11:49;;;;;;;16.58;12.38;;;9.20;80.20;;;;;;4973183;28;20026;-53
2022/03/20 10:14:21;;;;;;;17.77;13.30;;;9.20;81.60;;;;;;4955263;28;20031;-50
2022/03/20 10:16:48;;;;;;;17.42;12.80;;;9.10;81.20;;;;;;4973170;28;20026;-51
2022/03/20 10:19:40;;;;;;;16.38;12.57;;;9.30;84.10;;;;;;4955298;28;20030;-48
2022/03/20 10:22:11;;;;;;;17.73;13.35;;;9.40;85.40;;;;;;4968289;28;20486;-51
2022/03/20 10:24:40;;;;;;;23.42;13.93;;;9.50;83.20;;;;;;4972526;28;20019;-48
2022/03/20 10:27:13;;;;;;;17.63;13.15;;;9.50;80.40;;;;;;4972718;28;20037;-48
2022/03/20 10:29:48;;;;;;;17.63;13.48;;;9.60;80.10;;;;;;4972354;28;20031;-48
2022/03/20 10:32:13;;;;;;;17.35;13.40;;;9.60;80.50;;;;;;4971999;28;20405;-49
2022/03/20 10:34:48;;;;;;;17.30;13.15;;;9.60;81.20;;;;;;4972310;28;20035;-46
2022/03/20 10:37:13;;;;;;;18.45;12.25;;;9.80;79.60;;;;;;4971942;28;20090;-50
2022/03/20 10:39:42;;;;;;;18.25;13.55;;;9.90;79.80;;;;;;4972177;28;20023;-48
2022/03/20 10:42:14;;;;;;;23.30;13.95;;;9.90;79.60;;;;;;4954084;28;20034;-49
2022/03/20 10:44:40;;;;;;;18.75;13.25;;;9.90;79.20;;;;;;4971969;28;20444;-50
2022/03/20 10:47:16;;;;;;;18.20;13.65;;;10.00;78.60;;;;;;4971524;28;20404;-50
2022/03/20 10:50:09;;;;;;;18.83;13.95;;;9.90;77.50;;;;;;4971978;28;20030;-48
2022/03/20 10:55:16;;;;;;;19.10;14.00;;;10.10;77.90;;;;;;5028991;28;20053;-51
2022/03/20 10:57:43;;;;;;;17.55;13.45;;;10.10;78.60;;;;;;5030057;28;20029;-54
2022/03/20 11:00:11;;;;;;;16.98;13.95;;;10.10;77.70;;;;;;5030847;28;20021;-49
2022/03/20 11:02:39;;;;;;;22.33;12.82;;;10.20;79.30;;;;;;5030327;28;20025;-54
2022/03/20 11:05:07;;;;;;;22.50;13.10;;;10.30;77.50;;;;;;5030414;28;20017;-52
2022/03/20 11:07:32;;;;;;;17.65;12.60;;;10.30;76.00;;;;;;5030420;28;20104;-52
2022/03/20 11:10:00;;;;;;;20.10;12.63;;;10.40;77.20;;;;;;5030164;28;20108;-51
2022/03/20 11:12:32;;;;;;;18.88;13.35;;;10.50;76.60;;;;;;5030003;28;20483;-52
2022/03/20 11:15:08;;;;;;;17.27;12.52;;;10.50;76.50;;;;;;5029828;28;20103;-52
2022/03/20 11:17:46;;;;;;;19.95;13.65;;;10.50;75.80;;;;;;5010607;28;20484;-55
2022/03/20 11:20:14;;;;;;;18.55;13.80;;;10.60;75.60;;;;;;5021500;28;20057;-54
2022/03/20 11:22:50;;;;;;;17.73;13.68;;;10.70;75.30;;;;;;5029188;28;20032;-52
2022/03/20 11:25:20;;;;;;;18.02;13.23;;;10.60;73.30;;;;;;5030104;28;20030;-54
2022/03/20 11:27:52;;;;;;;19.45;14.05;;;10.60;74.30;;;;;;5030031;28;20412;-51
2022/03/20 11:30:20;;;;;;;17.52;13.50;;;10.60;75.50;;;;;;5029843;28;20022;-53
2022/03/20 11:32:48;;;;;;;18.45;13.50;;;10.70;74.00;;;;;;5029878;28;20053;-50
2022/03/20 11:35:14;;;;;;;18.92;13.40;;;10.80;74.00;;;;;;5029048;28;20021;-53
2022/03/20 11:37:43;;;;;;;20.67;13.88;;;10.90;72.30;;;;;;5029725;28;20060;-52
2022/03/20 11:40:19;;;;;;;18.52;13.35;;;10.90;73.20;;;;;;5029275;28;20040;-55
2022/03/20 11:42:45;;;;;;;15.57;12.50;;;11.00;70.00;;;;;;5029160;28;20029;-51
2022/03/20 11:45:20;;;;;;;18.63;13.02;;;11.00;67.20;;;;;;5029284;28;20014;-52
2022/03/20 11:47:49;;;;;;;19.20;13.88;;;11.00;69.80;;;;;;5029679;28;20036;-52
2022/03/20 11:50:22;;;;;;;19.08;13.60;;;11.00;69.00;;;;;;5029154;28;20049;-56
2022/03/20 11:53:09;;;;;;;18.40;13.55;;;11.10;69.80;;;;;;5028500;28;20053;-53
2022/03/20 11:55:38;;;;;;;22.13;14.38;;;11.20;67.00;;;;;;5029544;28;20044;-53
2022/03/20 11:58:08;;;;;;;18.05;13.98;;;11.20;67.10;;;;;;5029435;28;20032;-56
2022/03/20 12:00:39;;;;;;;18.60;13.98;;;11.20;65.80;;;;;;5029380;28;20120;-52
2022/03/20 12:03:14;;;;;;;19.35;14.18;;;11.20;66.30;;;;;;5029051;28;20474;-54
2022/03/20 12:06:07;;;;;;;18.60;12.98;;;11.20;66.40;;;;;;5009351;28;20428;-55
2022/03/20 12:08:42;;;;;;;17.55;13.07;;;11.30;65.70;;;;;;5012792;28;20562;-53
2022/03/20 12:11:31;;;;;;;17.23;13.25;;;11.30;65.20;;;;;;5029410;28;20032;-53
2022/03/20 12:14:05;;;;;;;17.30;12.10;;;11.30;65.20;;;;;;5028722;28;20040;-53
2022/03/20 12:16:50;;;;;;;18.05;12.80;;;11.40;64.80;;;;;;5029121;28;20105;-55
2022/03/20 12:19:26;;;;;;;19.05;13.98;;;11.40;64.50;;;;;;5028111;28;20029;-51
2022/03/20 12:21:58;;;;;;;15.75;13.13;;;11.50;66.30;;;;;;5029275;28;20023;-52
2022/03/20 12:24:37;;;;;;;16.17;11.93;;;11.50;63.00;;;;;;5029354;28;20022;-53
2022/03/20 12:27:25;;;;;;;17.60;12.73;;;11.50;63.20;;;;;;5028970;28;20018;-55
2022/03/20 12:29:53;;;;;;;19.05;12.70;;;11.50;63.30;;;;;;5029286;28;20534;-55
2022/03/20 12:32:23;;;;;;;16.90;13.13;;;11.50;62.20;;;;;;5028123;28;20028;-55
2022/03/20 12:35:02;;;;;;;17.40;13.02;;;11.50;61.90;;;;;;5030193;28;20025;-54
2022/03/20 12:37:32;;;;;;;18.35;12.82;;;11.50;62.90;;;;;;5013046;28;20184;-56
2022/03/20 12:40:07;;;;;;;16.00;13.02;;;11.50;62.10;;;;;;5013302;28;20052;-55
2022/03/20 12:42:35;;;;;;;17.63;12.93;;;11.60;62.30;;;;;;5032533;28;20026;-56
2022/03/20 12:45:05;;;;;;;18.00;12.65;;;11.60;60.50;;;;;;5032193;28;20036;-53
2022/03/20 12:47:32;;;;;;;19.20;13.27;;;11.60;60.20;;;;;;5032444;28;20029;-56
2022/03/20 12:50:09;;;;;;;17.40;12.32;;;11.70;60.10;;;;;;5032728;28;20399;-57
2022/03/20 12:52:37;;;;;;;19.08;12.35;;;11.60;60.00;;;;;;5012696;28;20038;-54
2022/03/20 12:55:09;;;;;;;16.40;12.10;;;11.60;60.00;;;;;;5013446;28;20038;-52
2022/03/20 12:57:39;;;;;;;15.98;12.52;;;11.70;59.60;;;;;;5032546;28;20041;-56
2022/03/20 13:00:08;;;;;;;14.60;12.07;;;11.70;61.30;;;;;;5032323;28;20029;-56
2022/03/20 13:02:51;;;;;;;17.20;12.15;;;11.80;58.50;;;;;;5032371;28;20026;-52
2022/03/20 13:05:17;;;;;;;16.45;11.60;;;11.90;58.00;;;;;;5032814;28;20028;-55
2022/03/20 13:07:42;;;;;;;16.38;11.75;;;11.80;57.50;;;;;;5032921;28;20030;-49
2022/03/20 13:10:10;;;;;;;14.13;11.27;;;11.80;57.40;;;;;;5032317;28;20040;-53
2022/03/20 13:13:01;;;;;;;16.38;12.15;;;11.90;57.20;;;;;;5032332;28;20025;-56
2022/03/20 13:15:29;;;;;;;18.63;12.02;;;11.90;56.20;;;;;;5032695;28;20033;-54